createdAt,value
2023-01-30T00:02:34.053Z,34.43
2023-01-30T00:07:35.478Z,34.17
2023-01-30T00:12:36.932Z,39.07
2023-01-30T00:17:38.368Z,37.83
2023-01-30T00:22:44.209Z,37.80
2023-01-30T00:27:54.057Z,29.90
2023-01-30T00:32:59.699Z,30.42
2023-01-30T00:38:01.203Z,33.08
2023-01-30T00:43:21.333Z,28.50
2023-01-30T00:48:22.882Z,32.25
2023-01-30T00:53:24.561Z,31.38
2023-01-30T00:58:26.606Z,28.02
2023-01-30T01:03:28.138Z,30.83
2023-01-30T01:08:29.639Z,35.00
2023-01-30T01:13:31.323Z,25.40
2023-01-30T01:18:33.636Z,21.07
2023-01-30T01:23:35.105Z,25.13
2023-01-30T01:28:36.561Z,22.23
2023-01-30T01:33:38.208Z,20.63
2023-01-30T01:38:42.117Z,19.20
2023-01-30T01:44:05.166Z,19.02
2023-01-30T01:49:14.199Z,15.57
2023-01-30T01:54:29.642Z,15.13
2023-01-30T01:59:40.124Z,16.45
2023-01-30T02:05:04.468Z,15.30
2023-01-30T02:15:11.004Z,9.73
2023-01-30T02:20:37.469Z,10.15
2023-01-30T02:26:07.743Z,10.55
2023-01-30T02:31:15.169Z,11.32
2023-01-30T02:37:00.296Z,10.02
2023-01-30T02:42:23.636Z,15.93
2023-01-30T02:48:01.237Z,11.37
2023-01-30T02:53:05.231Z,15.73
2023-01-30T02:58:07.293Z,12.57
2023-01-30T03:03:11.767Z,14.43
2023-01-30T03:08:28.366Z,18.70
2023-01-30T03:13:48.522Z,14.55
2023-01-30T03:18:50.268Z,22.35
2023-01-30T03:23:51.935Z,21.17
2023-01-30T03:28:53.993Z,15.52
2023-01-30T03:33:55.417Z,22.40
2023-01-30T03:38:56.916Z,18.00
2023-01-30T03:43:58.436Z,29.33
2023-01-30T03:48:59.906Z,19.40
2023-01-30T03:54:01.432Z,18.20
2023-01-30T03:59:02.871Z,21.57
2023-01-30T04:04:04.534Z,22.73
2023-01-30T04:09:06.114Z,20.83
2023-01-30T04:14:07.565Z,33.70
2023-01-30T04:19:09.057Z,25.73
2023-01-30T04:24:10.600Z,18.07
2023-01-30T04:29:12.030Z,31.83
2023-01-30T04:34:13.541Z,29.80
2023-01-30T04:39:15.036Z,28.50
2023-01-30T04:44:16.560Z,22.10
2023-01-30T04:49:18.051Z,25.07
2023-01-30T04:54:19.544Z,26.53
2023-01-30T04:59:21.053Z,25.37
2023-01-30T05:04:22.497Z,23.00
2023-01-30T05:09:24.045Z,17.70
2023-01-30T05:14:25.521Z,33.27
2023-01-30T05:19:27.002Z,15.60
2023-01-30T05:24:28.615Z,28.83
2023-01-30T05:29:30.171Z,22.00
2023-01-30T05:34:31.635Z,31.17
2023-01-30T05:39:33.308Z,27.37
2023-01-30T05:44:34.775Z,27.03
2023-01-30T05:49:36.563Z,34.77
2023-01-30T05:54:38.194Z,30.23
2023-01-30T05:59:39.678Z,30.60
2023-01-30T06:04:41.202Z,25.37
2023-01-30T06:09:42.622Z,21.07
2023-01-30T06:14:44.118Z,28.43
2023-01-30T06:19:45.567Z,36.07
2023-01-30T06:24:46.999Z,25.43
2023-01-30T06:29:48.482Z,25.23
2023-01-30T06:34:49.982Z,23.67
2023-01-30T06:39:51.423Z,23.90
2023-01-30T06:44:52.862Z,29.37
2023-01-30T06:49:54.334Z,31.07
2023-01-30T06:54:55.752Z,23.92
2023-01-30T06:59:57.163Z,27.97
2023-01-30T07:04:58.662Z,26.52
2023-01-30T07:10:07.789Z,20.80
2023-01-30T07:15:10.129Z,26.48
2023-01-30T07:20:11.868Z,26.92
2023-01-30T07:25:13.411Z,28.10
2023-01-30T07:30:14.963Z,33.23
2023-01-30T07:35:16.555Z,26.45
2023-01-30T07:40:21.658Z,30.33
2023-01-30T07:45:23.081Z,24.35
2023-01-30T07:50:24.763Z,44.57
2023-01-30T07:55:27.101Z,27.17
2023-01-30T08:00:28.630Z,41.80
2023-01-30T08:05:30.135Z,31.80
2023-01-30T08:10:31.613Z,30.42
2023-01-30T08:15:33.492Z,34.83
2023-01-30T08:20:36.202Z,28.45
2023-01-30T08:25:37.933Z,28.50
2023-01-30T08:30:41.514Z,14.93
2023-01-30T08:35:43.133Z,22.97
2023-01-30T08:40:44.888Z,24.33
2023-01-30T08:45:46.309Z,25.87
2023-01-30T08:50:47.818Z,22.23
2023-01-30T08:55:53.176Z,17.47
2023-01-30T09:00:54.657Z,21.17
2023-01-30T09:05:56.523Z,22.40
2023-01-30T09:10:59.915Z,31.50
2023-01-30T09:16:01.569Z,26.40
2023-01-30T09:21:04.567Z,20.48
2023-01-30T09:26:06.737Z,18.98
2023-01-30T09:31:08.687Z,14.52
2023-01-30T09:36:10.203Z,16.98
2023-01-30T09:41:52.810Z,20.98
2023-01-30T09:47:22.929Z,14.30
2023-01-30T09:52:42.431Z,25.10
2023-01-30T09:57:46.732Z,23.30
2023-01-30T10:03:20.215Z,19.75
2023-01-30T10:08:44.136Z,19.75
2023-01-30T10:13:59.149Z,17.17
2023-01-30T10:19:33.854Z,9.97
2023-01-30T10:25:02.400Z,10.05
2023-01-30T10:30:07.591Z,7.32
2023-01-30T10:35:22.036Z,8.18
2023-01-30T10:45:53.490Z,7.32
2023-01-30T10:51:11.734Z,12.85
2023-01-30T10:56:24.919Z,11.88
2023-01-30T11:01:41.812Z,11.20
2023-01-30T11:06:43.563Z,12.32
2023-01-30T11:11:53.634Z,10.35
2023-01-30T11:16:57.678Z,11.50
2023-01-30T11:22:05.158Z,25.02
2023-01-30T11:27:16.729Z,17.83
2023-01-30T11:32:28.874Z,20.40
2023-01-30T11:37:36.374Z,23.50
2023-01-30T11:42:44.410Z,22.00
2023-01-30T11:47:57.967Z,24.77
2023-01-30T11:53:05.078Z,16.77
2023-01-30T11:58:09.870Z,20.98
2023-01-30T12:03:14.595Z,13.48
2023-01-30T12:08:39.427Z,14.80
2023-01-30T12:13:45.453Z,17.33
2023-01-30T12:19:06.250Z,16.92
2023-01-30T12:24:13.730Z,12.30
2023-01-30T12:29:35.998Z,12.57
2023-01-30T12:34:37.733Z,21.30
2023-01-30T12:40:15.993Z,14.85
2023-01-30T12:45:23.899Z,11.30
2023-01-30T12:50:54.298Z,12.57
2023-01-30T12:56:04.609Z,11.25
2023-01-30T13:01:25.324Z,6.30
2023-01-30T13:07:01.049Z,5.63
2023-01-30T13:12:14.135Z,7.60
2023-01-30T13:17:53.147Z,11.52
2023-01-30T13:23:01.945Z,13.40
2023-01-30T13:28:11.826Z,21.00
2023-01-30T13:33:21.025Z,20.75
2023-01-30T13:38:27.297Z,38.47
2023-01-30T13:43:35.664Z,25.95
2023-01-30T13:48:58.485Z,23.42
2023-01-30T13:54:16.800Z,21.15
2023-01-30T14:00:03.625Z,12.90
2023-01-30T14:05:05.862Z,18.45
2023-01-30T14:10:10.323Z,17.25
2023-01-30T14:15:14.837Z,20.02
2023-01-30T14:20:20.654Z,18.50
2023-01-30T14:25:35.204Z,24.02
2023-01-30T14:30:45.715Z,19.95
2023-01-30T14:36:02.393Z,31.55
2023-01-30T14:41:03.984Z,16.60
2023-01-30T14:46:19.193Z,24.50
2023-01-30T14:51:39.115Z,38.92
2023-01-30T14:56:49.764Z,25.70
2023-01-30T15:02:03.501Z,24.95
2023-01-30T15:07:29.122Z,29.52
2023-01-30T15:12:49.081Z,30.40
2023-01-30T15:18:18.797Z,28.85
2023-01-30T15:23:36.640Z,34.88
2023-01-30T15:29:24.194Z,24.80
2023-01-30T15:34:35.988Z,30.25
2023-01-30T15:39:37.442Z,30.60
2023-01-30T15:45:21.374Z,29.88
2023-01-30T15:55:28.635Z,23.98
2023-01-30T16:00:34.576Z,27.92
2023-01-30T16:05:36.071Z,27.27
2023-01-30T16:10:45.303Z,21.27
2023-01-30T16:16:12.660Z,28.42
2023-01-30T16:21:19.627Z,29.27
2023-01-30T16:26:24.519Z,36.10
2023-01-30T16:31:31.878Z,24.13
2023-01-30T16:36:39.830Z,24.25
2023-01-30T16:41:43.166Z,18.50
2023-01-30T16:46:46.127Z,21.17
2023-01-30T16:51:49.186Z,25.70
2023-01-30T16:56:55.655Z,17.80
2023-01-30T17:01:59.074Z,24.90
2023-01-30T17:07:04.769Z,17.30
2023-01-30T17:12:29.902Z,16.85
2023-01-30T17:17:31.393Z,24.60
2023-01-30T17:22:33.404Z,18.02
2023-01-30T17:27:34.935Z,17.07
2023-01-30T17:32:36.365Z,17.27
2023-01-30T17:37:38.324Z,20.88
2023-01-30T17:42:39.857Z,17.67
2023-01-30T17:47:41.398Z,16.17
2023-01-30T17:52:42.991Z,19.77
2023-01-30T17:57:47.510Z,23.83
2023-01-30T18:02:49.198Z,14.20
2023-01-30T18:07:50.730Z,20.75
2023-01-30T18:12:52.201Z,14.63
2023-01-30T18:17:56.806Z,22.23
2023-01-30T18:27:59.634Z,23.67
2023-01-30T18:33:01.098Z,20.37
2023-01-30T18:38:03.167Z,21.53
2023-01-30T18:43:04.799Z,16.67
2023-01-30T18:48:06.447Z,18.93
2023-01-30T18:53:09.151Z,28.90
2023-01-30T18:58:10.671Z,24.23
2023-01-30T19:03:12.139Z,24.47
2023-01-30T19:08:13.610Z,16.90
2023-01-30T19:13:33.097Z,17.73
2023-01-30T19:18:34.537Z,21.53
2023-01-30T19:23:36.101Z,14.27
2023-01-30T19:28:38.171Z,24.30
2023-01-30T19:33:40.600Z,22.17
2023-01-30T19:38:43.055Z,22.60
2023-01-30T19:43:44.526Z,26.90
2023-01-30T19:48:56.432Z,27.23
2023-01-30T19:54:00.245Z,30.33
2023-01-30T19:59:02.284Z,34.60
2023-01-30T20:04:04.127Z,34.70
2023-01-30T20:09:09.758Z,25.80
2023-01-30T20:14:11.628Z,16.60
2023-01-30T20:19:15.442Z,18.10
2023-01-30T20:24:17.096Z,12.67
2023-01-30T20:29:18.818Z,13.27
2023-01-30T20:34:20.642Z,17.37
2023-01-30T20:39:22.179Z,11.00
2023-01-30T20:44:24.368Z,18.50
2023-01-30T20:49:26.355Z,22.40
2023-01-30T20:54:28.294Z,19.80
2023-01-30T20:59:29.958Z,21.07
2023-01-30T21:04:31.441Z,16.93
2023-01-30T21:09:32.940Z,17.30
2023-01-30T21:14:34.359Z,20.60
2023-01-30T21:19:38.151Z,21.87
2023-01-30T21:24:43.137Z,13.13
2023-01-30T21:29:44.603Z,18.50
2023-01-30T21:34:46.118Z,14.97
2023-01-30T21:40:06.012Z,22.10
2023-01-30T21:45:08.138Z,21.97
2023-01-30T21:50:10.832Z,21.60
2023-01-30T21:55:12.313Z,15.53
2023-01-30T22:00:14.480Z,22.13
2023-01-30T22:05:16.021Z,14.47
2023-01-30T22:10:17.569Z,17.50
2023-01-30T22:15:21.638Z,16.03
2023-01-30T22:20:23.400Z,20.83
2023-01-30T22:25:24.822Z,14.33
2023-01-30T22:30:26.241Z,10.70
2023-01-30T22:35:28.878Z,11.83
2023-01-30T22:40:30.411Z,16.83
2023-01-30T22:45:34.719Z,7.83
2023-01-30T22:50:36.170Z,13.60
2023-01-30T22:55:38.505Z,11.27
2023-01-30T23:00:40.322Z,12.23
2023-01-30T23:05:42.822Z,22.00
2023-01-30T23:10:44.366Z,15.00
2023-01-30T23:15:46.838Z,9.10
2023-01-30T23:20:48.270Z,10.20
2023-01-30T23:25:49.742Z,8.50
2023-01-30T23:30:51.257Z,13.93
2023-01-30T23:35:52.761Z,12.70
2023-01-30T23:40:54.209Z,12.40
2023-01-30T23:45:56.273Z,18.10
2023-01-30T23:51:01.863Z,14.70
2023-01-30T23:56:04.164Z,18.57
